sensor_id;sensor_type;location;lat;lon;timestamp;P1;durP1;ratioP1;P2;durP2;ratioP2
34491;SDS011;20737;49.908;8.126;2023-02-15T00:01:21;50.53;;;15.03;;
34491;SDS011;20737;49.908;8.126;2023-02-15T00:03:48;56.60;;;17.17;;
34491;SDS011;20737;49.908;8.126;2023-02-15T00:06:16;52.93;;;15.53;;
34491;SDS011;20737;49.908;8.126;2023-02-15T00:08:43;61.47;;;15.33;;
34491;SDS011;20737;49.908;8.126;2023-02-15T00:11:16;47.20;;;15.50;;
34491;SDS011;20737;49.908;8.126;2023-02-15T00:14:06;55.17;;;15.87;;
34491;SDS011;20737;49.908;8.126;2023-02-15T00:16:34;56.53;;;16.17;;
34491;SDS011;20737;49.908;8.126;2023-02-15T00:19:01;55.90;;;16.73;;
34491;SDS011;20737;49.908;8.126;2023-02-15T00:21:30;57.80;;;17.27;;
34491;SDS011;20737;49.908;8.126;2023-02-15T00:23:59;50.40;;;16.43;;
34491;SDS011;20737;49.908;8.126;2023-02-15T00:26:27;51.63;;;17.53;;
34491;SDS011;20737;49.908;8.126;2023-02-15T00:28:55;55.97;;;16.23;;
34491;SDS011;20737;49.908;8.126;2023-02-15T00:31:24;50.57;;;15.93;;
34491;SDS011;20737;49.908;8.126;2023-02-15T00:33:51;56.47;;;16.10;;
34491;SDS011;20737;49.908;8.126;2023-02-15T00:36:18;55.00;;;16.20;;
34491;SDS011;20737;49.908;8.126;2023-02-15T00:38:46;53.50;;;16.50;;
34491;SDS011;20737;49.908;8.126;2023-02-15T00:41:13;54.13;;;19.40;;
34491;SDS011;20737;49.908;8.126;2023-02-15T00:43:40;62.20;;;17.23;;
34491;SDS011;20737;49.908;8.126;2023-02-15T00:46:06;51.30;;;15.30;;
34491;SDS011;20737;49.908;8.126;2023-02-15T00:48:37;55.73;;;17.67;;
34491;SDS011;20737;49.908;8.126;2023-02-15T00:51:03;53.27;;;17.47;;
34491;SDS011;20737;49.908;8.126;2023-02-15T00:53:31;53.80;;;17.30;;
34491;SDS011;20737;49.908;8.126;2023-02-15T00:56:00;46.13;;;15.70;;
34491;SDS011;20737;49.908;8.126;2023-02-15T00:58:27;50.57;;;16.97;;
34491;SDS011;20737;49.908;8.126;2023-02-15T01:00:53;54.80;;;15.57;;
34491;SDS011;20737;49.908;8.126;2023-02-15T01:03:20;46.97;;;15.20;;
34491;SDS011;20737;49.908;8.126;2023-02-15T01:05:48;50.50;;;15.23;;
34491;SDS011;20737;49.908;8.126;2023-02-15T01:08:15;48.93;;;16.47;;
34491;SDS011;20737;49.908;8.126;2023-02-15T01:10:42;40.23;;;14.70;;
34491;SDS011;20737;49.908;8.126;2023-02-15T01:13:13;51.30;;;14.43;;
34491;SDS011;20737;49.908;8.126;2023-02-15T01:15:41;46.73;;;14.33;;
34491;SDS011;20737;49.908;8.126;2023-02-15T01:18:08;41.77;;;14.13;;
34491;SDS011;20737;49.908;8.126;2023-02-15T01:20:38;44.07;;;14.87;;
34491;SDS011;20737;49.908;8.126;2023-02-15T01:23:06;48.33;;;14.23;;
34491;SDS011;20737;49.908;8.126;2023-02-15T01:25:34;35.17;;;12.90;;
34491;SDS011;20737;49.908;8.126;2023-02-15T01:28:01;44.20;;;14.60;;
34491;SDS011;20737;49.908;8.126;2023-02-15T01:30:30;43.03;;;14.73;;
34491;SDS011;20737;49.908;8.126;2023-02-15T01:32:57;31.77;;;12.20;;
34491;SDS011;20737;49.908;8.126;2023-02-15T01:35:25;41.87;;;14.13;;
34491;SDS011;20737;49.908;8.126;2023-02-15T01:37:52;38.53;;;12.70;;
34491;SDS011;20737;49.908;8.126;2023-02-15T01:40:19;38.53;;;12.57;;
34491;SDS011;20737;49.908;8.126;2023-02-15T01:42:49;38.67;;;14.07;;
34491;SDS011;20737;49.908;8.126;2023-02-15T01:45:22;40.20;;;13.47;;
34491;SDS011;20737;49.908;8.126;2023-02-15T01:47:56;41.30;;;12.13;;
34491;SDS011;20737;49.908;8.126;2023-02-15T01:50:28;35.73;;;11.93;;
34491;SDS011;20737;49.908;8.126;2023-02-15T01:52:58;36.50;;;13.70;;
34491;SDS011;20737;49.908;8.126;2023-02-15T01:55:29;37.70;;;12.53;;
34491;SDS011;20737;49.908;8.126;2023-02-15T01:57:59;40.83;;;13.53;;
34491;SDS011;20737;49.908;8.126;2023-02-15T02:00:29;35.93;;;12.37;;
34491;SDS011;20737;49.908;8.126;2023-02-15T02:02:57;39.90;;;13.83;;
34491;SDS011;20737;49.908;8.126;2023-02-15T02:05:26;37.97;;;13.63;;
34491;SDS011;20737;49.908;8.126;2023-02-15T02:07:57;36.73;;;12.27;;
34491;SDS011;20737;49.908;8.126;2023-02-15T02:10:26;41.03;;;12.93;;
34491;SDS011;20737;49.908;8.126;2023-02-15T02:12:54;43.33;;;13.03;;
34491;SDS011;20737;49.908;8.126;2023-02-15T02:15:27;33.93;;;12.07;;
34491;SDS011;20737;49.908;8.126;2023-02-15T02:18:06;33.00;;;11.70;;
34491;SDS011;20737;49.908;8.126;2023-02-15T02:20:59;35.25;;;11.75;;
34491;SDS011;20737;49.908;8.126;2023-02-15T02:23:43;41.67;;;12.93;;
34491;SDS011;20737;49.908;8.126;2023-02-15T02:32:50;35.13;;;10.80;;
34491;SDS011;20737;49.908;8.126;2023-02-15T02:35:48;38.50;;;12.43;;
34491;SDS011;20737;49.908;8.126;2023-02-15T02:38:23;32.37;;;11.20;;
34491;SDS011;20737;49.908;8.126;2023-02-15T02:40:59;31.90;;;11.80;;
34491;SDS011;20737;49.908;8.126;2023-02-15T02:43:37;32.60;;;12.13;;
34491;SDS011;20737;49.908;8.126;2023-02-15T02:46:09;33.53;;;11.00;;
34491;SDS011;20737;49.908;8.126;2023-02-15T02:48:44;37.23;;;11.53;;
34491;SDS011;20737;49.908;8.126;2023-02-15T02:51:13;33.17;;;11.40;;
34491;SDS011;20737;49.908;8.126;2023-02-15T02:53:46;31.70;;;11.07;;
34491;SDS011;20737;49.908;8.126;2023-02-15T02:56:17;31.57;;;12.03;;
34491;SDS011;20737;49.908;8.126;2023-02-15T02:58:48;31.57;;;10.87;;
34491;SDS011;20737;49.908;8.126;2023-02-15T03:01:19;29.90;;;10.20;;
34491;SDS011;20737;49.908;8.126;2023-02-15T03:03:51;34.87;;;9.97;;
34491;SDS011;20737;49.908;8.126;2023-02-15T03:06:22;30.53;;;10.47;;
34491;SDS011;20737;49.908;8.126;2023-02-15T03:08:57;34.57;;;11.63;;
34491;SDS011;20737;49.908;8.126;2023-02-15T03:11:32;40.63;;;13.63;;
34491;SDS011;20737;49.908;8.126;2023-02-15T03:13:58;32.47;;;11.40;;
34491;SDS011;20737;49.908;8.126;2023-02-15T03:16:25;29.37;;;10.50;;
34491;SDS011;20737;49.908;8.126;2023-02-15T03:18:55;27.93;;;10.67;;
34491;SDS011;20737;49.908;8.126;2023-02-15T03:21:27;34.30;;;11.17;;
34491;SDS011;20737;49.908;8.126;2023-02-15T03:23:59;30.37;;;10.10;;
34491;SDS011;20737;49.908;8.126;2023-02-15T03:26:32;27.88;;;10.05;;
34491;SDS011;20737;49.908;8.126;2023-02-15T03:29:00;33.17;;;10.17;;
34491;SDS011;20737;49.908;8.126;2023-02-15T03:31:31;32.17;;;10.63;;
34491;SDS011;20737;49.908;8.126;2023-02-15T03:34:04;31.40;;;10.70;;
34491;SDS011;20737;49.908;8.126;2023-02-15T03:36:41;37.27;;;10.60;;
34491;SDS011;20737;49.908;8.126;2023-02-15T03:39:13;34.17;;;10.27;;
34491;SDS011;20737;49.908;8.126;2023-02-15T03:41:48;40.80;;;11.37;;
34491;SDS011;20737;49.908;8.126;2023-02-15T03:44:23;34.00;;;11.30;;
34491;SDS011;20737;49.908;8.126;2023-02-15T03:46:58;32.60;;;10.10;;
34491;SDS011;20737;49.908;8.126;2023-02-15T03:49:32;31.07;;;11.60;;
34491;SDS011;20737;49.908;8.126;2023-02-15T03:52:07;32.40;;;10.83;;
34491;SDS011;20737;49.908;8.126;2023-02-15T03:54:37;32.77;;;10.37;;
34491;SDS011;20737;49.908;8.126;2023-02-15T03:59:57;31.50;;;10.73;;
34491;SDS011;20737;49.908;8.126;2023-02-15T04:02:44;31.93;;;10.07;;
34491;SDS011;20737;49.908;8.126;2023-02-15T04:05:40;36.17;;;9.87;;
34491;SDS011;20737;49.908;8.126;2023-02-15T04:08:08;35.20;;;10.30;;
34491;SDS011;20737;49.908;8.126;2023-02-15T04:10:37;32.70;;;10.70;;
34491;SDS011;20737;49.908;8.126;2023-02-15T04:13:20;33.90;;;11.03;;
34491;SDS011;20737;49.908;8.126;2023-02-15T04:15:47;27.33;;;8.13;;
34491;SDS011;20737;49.908;8.126;2023-02-15T04:18:29;26.40;;;9.33;;
34491;SDS011;20737;49.908;8.126;2023-02-15T04:21:15;29.83;;;9.63;;
34491;SDS011;20737;49.908;8.126;2023-02-15T04:23:59;27.73;;;9.27;;
34491;SDS011;20737;49.908;8.126;2023-02-15T04:26:43;27.70;;;9.50;;
34491;SDS011;20737;49.908;8.126;2023-02-15T04:29:10;29.43;;;9.70;;
34491;SDS011;20737;49.908;8.126;2023-02-15T04:31:39;28.03;;;9.77;;
34491;SDS011;20737;49.908;8.126;2023-02-15T04:34:09;31.17;;;11.80;;
34491;SDS011;20737;49.908;8.126;2023-02-15T04:36:40;31.50;;;9.90;;
34491;SDS011;20737;49.908;8.126;2023-02-15T04:39:08;31.63;;;10.20;;
34491;SDS011;20737;49.908;8.126;2023-02-15T04:41:35;33.60;;;9.40;;
34491;SDS011;20737;49.908;8.126;2023-02-15T04:44:02;29.57;;;10.17;;
34491;SDS011;20737;49.908;8.126;2023-02-15T04:46:30;26.73;;;8.37;;
34491;SDS011;20737;49.908;8.126;2023-02-15T04:48:56;30.37;;;9.03;;
34491;SDS011;20737;49.908;8.126;2023-02-15T04:51:23;24.43;;;9.23;;
34491;SDS011;20737;49.908;8.126;2023-02-15T04:53:51;32.30;;;10.47;;
34491;SDS011;20737;49.908;8.126;2023-02-15T04:56:18;36.33;;;10.93;;
34491;SDS011;20737;49.908;8.126;2023-02-15T04:58:46;25.87;;;8.97;;
34491;SDS011;20737;49.908;8.126;2023-02-15T05:01:13;29.57;;;10.10;;
34491;SDS011;20737;49.908;8.126;2023-02-15T05:03:41;34.17;;;9.90;;
34491;SDS011;20737;49.908;8.126;2023-02-15T05:06:09;26.50;;;8.40;;
34491;SDS011;20737;49.908;8.126;2023-02-15T05:08:36;23.57;;;8.60;;
34491;SDS011;20737;49.908;8.126;2023-02-15T05:11:04;21.40;;;7.57;;
34491;SDS011;20737;49.908;8.126;2023-02-15T05:13:31;27.20;;;8.30;;
34491;SDS011;20737;49.908;8.126;2023-02-15T05:15:57;28.73;;;9.47;;
34491;SDS011;20737;49.908;8.126;2023-02-15T05:18:30;28.45;;;9.48;;
34491;SDS011;20737;49.908;8.126;2023-02-15T05:20:56;29.00;;;9.73;;
34491;SDS011;20737;49.908;8.126;2023-02-15T05:23:23;30.70;;;9.97;;
34491;SDS011;20737;49.908;8.126;2023-02-15T05:25:50;27.80;;;9.73;;
34491;SDS011;20737;49.908;8.126;2023-02-15T05:28:36;23.07;;;8.23;;
34491;SDS011;20737;49.908;8.126;2023-02-15T05:31:07;35.43;;;9.43;;
34491;SDS011;20737;49.908;8.126;2023-02-15T05:33:36;32.50;;;8.80;;
34491;SDS011;20737;49.908;8.126;2023-02-15T05:36:03;26.97;;;8.30;;
34491;SDS011;20737;49.908;8.126;2023-02-15T05:38:33;28.27;;;8.27;;
34491;SDS011;20737;49.908;8.126;2023-02-15T05:41:01;29.97;;;8.90;;
34491;SDS011;20737;49.908;8.126;2023-02-15T05:43:32;24.30;;;8.23;;
34491;SDS011;20737;49.908;8.126;2023-02-15T05:46:03;29.88;;;9.45;;
34491;SDS011;20737;49.908;8.126;2023-02-15T05:48:32;32.77;;;9.33;;
34491;SDS011;20737;49.908;8.126;2023-02-15T05:51:00;27.80;;;8.80;;
34491;SDS011;20737;49.908;8.126;2023-02-15T05:53:28;27.57;;;10.60;;
34491;SDS011;20737;49.908;8.126;2023-02-15T05:55:57;26.83;;;8.30;;
34491;SDS011;20737;49.908;8.126;2023-02-15T05:58:24;25.70;;;8.60;;
34491;SDS011;20737;49.908;8.126;2023-02-15T06:00:55;28.03;;;9.47;;
34491;SDS011;20737;49.908;8.126;2023-02-15T06:03:26;24.87;;;8.33;;
34491;SDS011;20737;49.908;8.126;2023-02-15T06:05:53;30.60;;;8.83;;
34491;SDS011;20737;49.908;8.126;2023-02-15T06:08:20;24.37;;;8.20;;
34491;SDS011;20737;49.908;8.126;2023-02-15T06:10:47;18.97;;;7.50;;
34491;SDS011;20737;49.908;8.126;2023-02-15T06:13:16;27.47;;;8.23;;
34491;SDS011;20737;49.908;8.126;2023-02-15T06:15:43;28.27;;;8.80;;
34491;SDS011;20737;49.908;8.126;2023-02-15T06:18:11;34.63;;;10.17;;
34491;SDS011;20737;49.908;8.126;2023-02-15T06:20:40;38.60;;;12.03;;
34491;SDS011;20737;49.908;8.126;2023-02-15T06:23:06;44.87;;;14.97;;
34491;SDS011;20737;49.908;8.126;2023-02-15T06:25:33;30.60;;;10.90;;
34491;SDS011;20737;49.908;8.126;2023-02-15T06:28:00;31.37;;;8.67;;
34491;SDS011;20737;49.908;8.126;2023-02-15T06:30:27;24.10;;;7.80;;
34491;SDS011;20737;49.908;8.126;2023-02-15T06:32:54;25.97;;;8.37;;
34491;SDS011;20737;49.908;8.126;2023-02-15T06:35:20;23.27;;;8.43;;
34491;SDS011;20737;49.908;8.126;2023-02-15T06:37:49;25.30;;;7.87;;
34491;SDS011;20737;49.908;8.126;2023-02-15T06:40:16;23.33;;;8.57;;
34491;SDS011;20737;49.908;8.126;2023-02-15T06:42:42;21.60;;;7.40;;
34491;SDS011;20737;49.908;8.126;2023-02-15T06:45:10;29.07;;;8.17;;
34491;SDS011;20737;49.908;8.126;2023-02-15T06:47:37;28.80;;;8.33;;
34491;SDS011;20737;49.908;8.126;2023-02-15T06:50:07;26.70;;;8.67;;
34491;SDS011;20737;49.908;8.126;2023-02-15T06:52:35;26.97;;;8.90;;
34491;SDS011;20737;49.908;8.126;2023-02-15T06:55:04;22.67;;;7.63;;
34491;SDS011;20737;49.908;8.126;2023-02-15T06:57:31;24.13;;;8.90;;
34491;SDS011;20737;49.908;8.126;2023-02-15T06:59:59;27.60;;;8.10;;
34491;SDS011;20737;49.908;8.126;2023-02-15T07:02:26;21.83;;;7.03;;
34491;SDS011;20737;49.908;8.126;2023-02-15T07:04:53;25.83;;;7.93;;
34491;SDS011;20737;49.908;8.126;2023-02-15T07:07:20;24.53;;;8.07;;
34491;SDS011;20737;49.908;8.126;2023-02-15T07:09:46;23.93;;;8.60;;
34491;SDS011;20737;49.908;8.126;2023-02-15T07:12:14;22.30;;;6.93;;
34491;SDS011;20737;49.908;8.126;2023-02-15T07:14:59;20.40;;;7.73;;
34491;SDS011;20737;49.908;8.126;2023-02-15T07:17:25;24.80;;;8.77;;
34491;SDS011;20737;49.908;8.126;2023-02-15T07:19:53;21.90;;;7.57;;
34491;SDS011;20737;49.908;8.126;2023-02-15T07:22:20;23.20;;;8.07;;
34491;SDS011;20737;49.908;8.126;2023-02-15T07:24:46;25.20;;;8.40;;
34491;SDS011;20737;49.908;8.126;2023-02-15T07:27:15;24.23;;;9.20;;
34491;SDS011;20737;49.908;8.126;2023-02-15T07:29:43;22.80;;;8.67;;
34491;SDS011;20737;49.908;8.126;2023-02-15T07:32:10;18.40;;;6.83;;
34491;SDS011;20737;49.908;8.126;2023-02-15T07:34:40;19.33;;;7.37;;
34491;SDS011;20737;49.908;8.126;2023-02-15T07:37:07;22.87;;;7.40;;
34491;SDS011;20737;49.908;8.126;2023-02-15T07:39:33;22.03;;;7.23;;
34491;SDS011;20737;49.908;8.126;2023-02-15T07:42:00;17.17;;;6.57;;
34491;SDS011;20737;49.908;8.126;2023-02-15T07:44:28;22.97;;;7.40;;
34491;SDS011;20737;49.908;8.126;2023-02-15T07:46:55;22.53;;;7.47;;
34491;SDS011;20737;49.908;8.126;2023-02-15T07:49:22;18.23;;;7.40;;
34491;SDS011;20737;49.908;8.126;2023-02-15T07:51:49;25.50;;;8.23;;
34491;SDS011;20737;49.908;8.126;2023-02-15T07:54:18;19.90;;;7.83;;
34491;SDS011;20737;49.908;8.126;2023-02-15T07:56:45;23.07;;;7.60;;
34491;SDS011;20737;49.908;8.126;2023-02-15T07:59:12;21.37;;;6.90;;
34491;SDS011;20737;49.908;8.126;2023-02-15T08:01:40;17.23;;;7.40;;
34491;SDS011;20737;49.908;8.126;2023-02-15T08:04:07;26.67;;;9.03;;
34491;SDS011;20737;49.908;8.126;2023-02-15T08:06:36;21.77;;;8.77;;
34491;SDS011;20737;49.908;8.126;2023-02-15T08:09:03;21.23;;;7.87;;
34491;SDS011;20737;49.908;8.126;2023-02-15T08:11:31;22.60;;;8.70;;
34491;SDS011;20737;49.908;8.126;2023-02-15T08:14:01;20.70;;;7.77;;
34491;SDS011;20737;49.908;8.126;2023-02-15T08:16:30;24.00;;;9.07;;
34491;SDS011;20737;49.908;8.126;2023-02-15T08:19:01;24.70;;;8.00;;
34491;SDS011;20737;49.908;8.126;2023-02-15T08:21:29;21.47;;;8.87;;
34491;SDS011;20737;49.908;8.126;2023-02-15T08:24:00;18.80;;;8.17;;
34491;SDS011;20737;49.908;8.126;2023-02-15T08:26:27;21.30;;;8.57;;
34491;SDS011;20737;49.908;8.126;2023-02-15T08:28:55;23.83;;;8.27;;
34491;SDS011;20737;49.908;8.126;2023-02-15T08:31:24;23.60;;;7.07;;
34491;SDS011;20737;49.908;8.126;2023-02-15T08:33:52;20.93;;;8.07;;
34491;SDS011;20737;49.908;8.126;2023-02-15T08:36:22;28.60;;;8.70;;
34491;SDS011;20737;49.908;8.126;2023-02-15T08:38:50;21.27;;;8.30;;
34491;SDS011;20737;49.908;8.126;2023-02-15T08:41:17;17.80;;;7.70;;
34491;SDS011;20737;49.908;8.126;2023-02-15T08:43:46;21.20;;;8.23;;
34491;SDS011;20737;49.908;8.126;2023-02-15T08:46:14;21.13;;;7.87;;
34491;SDS011;20737;49.908;8.126;2023-02-15T08:48:42;16.50;;;7.17;;
34491;SDS011;20737;49.908;8.126;2023-02-15T08:51:09;20.30;;;7.90;;
34491;SDS011;20737;49.908;8.126;2023-02-15T08:53:39;21.23;;;8.67;;
34491;SDS011;20737;49.908;8.126;2023-02-15T08:56:07;26.03;;;8.73;;
34491;SDS011;20737;49.908;8.126;2023-02-15T08:58:35;23.83;;;8.33;;
34491;SDS011;20737;49.908;8.126;2023-02-15T09:01:07;19.67;;;7.77;;
34491;SDS011;20737;49.908;8.126;2023-02-15T09:03:35;23.37;;;8.97;;
34491;SDS011;20737;49.908;8.126;2023-02-15T09:06:02;28.57;;;9.97;;
34491;SDS011;20737;49.908;8.126;2023-02-15T09:08:29;27.47;;;9.43;;
34491;SDS011;20737;49.908;8.126;2023-02-15T09:11:05;27.17;;;9.63;;
34491;SDS011;20737;49.908;8.126;2023-02-15T09:13:33;27.83;;;8.87;;
34491;SDS011;20737;49.908;8.126;2023-02-15T09:16:01;25.07;;;10.23;;
34491;SDS011;20737;49.908;8.126;2023-02-15T09:18:29;26.63;;;11.23;;
34491;SDS011;20737;49.908;8.126;2023-02-15T09:21:03;24.83;;;9.03;;
34491;SDS011;20737;49.908;8.126;2023-02-15T09:23:30;24.90;;;10.10;;
34491;SDS011;20737;49.908;8.126;2023-02-15T09:26:00;26.13;;;8.80;;
34491;SDS011;20737;49.908;8.126;2023-02-15T09:28:29;19.07;;;9.13;;
34491;SDS011;20737;49.908;8.126;2023-02-15T09:31:03;30.87;;;11.23;;
34491;SDS011;20737;49.908;8.126;2023-02-15T09:33:32;24.97;;;9.80;;
34491;SDS011;20737;49.908;8.126;2023-02-15T09:35:59;24.80;;;9.37;;
34491;SDS011;20737;49.908;8.126;2023-02-15T09:38:26;31.37;;;9.90;;
34491;SDS011;20737;49.908;8.126;2023-02-15T09:40:55;22.40;;;9.60;;
34491;SDS011;20737;49.908;8.126;2023-02-15T09:46:12;22.83;;;8.57;;
34491;SDS011;20737;49.908;8.126;2023-02-15T09:48:48;26.37;;;10.97;;
34491;SDS011;20737;49.908;8.126;2023-02-15T09:51:31;17.43;;;7.70;;
34491;SDS011;20737;49.908;8.126;2023-02-15T09:54:15;17.60;;;8.17;;
34491;SDS011;20737;49.908;8.126;2023-02-15T09:56:49;19.37;;;8.17;;
34491;SDS011;20737;49.908;8.126;2023-02-15T09:59:25;20.90;;;7.97;;
34491;SDS011;20737;49.908;8.126;2023-02-15T10:02:03;21.03;;;8.83;;
34491;SDS011;20737;49.908;8.126;2023-02-15T10:04:47;26.13;;;9.73;;
34491;SDS011;20737;49.908;8.126;2023-02-15T10:07:23;25.93;;;10.67;;
34491;SDS011;20737;49.908;8.126;2023-02-15T10:10:14;26.03;;;9.63;;
34491;SDS011;20737;49.908;8.126;2023-02-15T10:12:56;23.20;;;8.97;;
34491;SDS011;20737;49.908;8.126;2023-02-15T10:15:42;26.07;;;10.17;;
34491;SDS011;20737;49.908;8.126;2023-02-15T10:18:27;22.03;;;8.17;;
34491;SDS011;20737;49.908;8.126;2023-02-15T10:21:07;22.10;;;9.13;;
34491;SDS011;20737;49.908;8.126;2023-02-15T10:23:50;21.67;;;8.13;;
34491;SDS011;20737;49.908;8.126;2023-02-15T10:26:33;21.33;;;8.30;;
34491;SDS011;20737;49.908;8.126;2023-02-15T10:29:08;22.77;;;7.70;;
34491;SDS011;20737;49.908;8.126;2023-02-15T10:31:44;14.63;;;6.80;;
34491;SDS011;20737;49.908;8.126;2023-02-15T10:36:56;18.80;;;8.67;;
34491;SDS011;20737;49.908;8.126;2023-02-15T10:39:45;18.50;;;8.93;;
34491;SDS011;20737;49.908;8.126;2023-02-15T10:42:20;19.90;;;7.30;;
34491;SDS011;20737;49.908;8.126;2023-02-15T10:44:58;20.50;;;8.93;;
34491;SDS011;20737;49.908;8.126;2023-02-15T10:47:41;19.40;;;8.07;;
34491;SDS011;20737;49.908;8.126;2023-02-15T10:50:32;26.10;;;9.47;;
34491;SDS011;20737;49.908;8.126;2023-02-15T10:53:15;19.53;;;8.63;;
34491;SDS011;20737;49.908;8.126;2023-02-15T10:55:58;21.70;;;7.80;;
34491;SDS011;20737;49.908;8.126;2023-02-15T10:58:36;17.33;;;7.60;;
34491;SDS011;20737;49.908;8.126;2023-02-15T11:01:14;19.00;;;8.13;;
34491;SDS011;20737;49.908;8.126;2023-02-15T11:03:55;18.35;;;8.27;;
34491;SDS011;20737;49.908;8.126;2023-02-15T11:06:34;19.87;;;8.57;;
34491;SDS011;20737;49.908;8.126;2023-02-15T11:09:04;14.27;;;7.03;;
34491;SDS011;20737;49.908;8.126;2023-02-15T11:11:36;20.53;;;7.93;;
34491;SDS011;20737;49.908;8.126;2023-02-15T11:14:09;20.97;;;8.47;;
34491;SDS011;20737;49.908;8.126;2023-02-15T11:19:11;17.33;;;7.00;;
34491;SDS011;20737;49.908;8.126;2023-02-15T11:21:42;21.45;;;8.25;;
34491;SDS011;20737;49.908;8.126;2023-02-15T11:24:12;17.80;;;7.53;;
34491;SDS011;20737;49.908;8.126;2023-02-15T11:26:41;18.90;;;9.33;;
34491;SDS011;20737;49.908;8.126;2023-02-15T11:29:10;22.00;;;9.57;;
34491;SDS011;20737;49.908;8.126;2023-02-15T11:31:41;16.50;;;7.63;;
34491;SDS011;20737;49.908;8.126;2023-02-15T11:34:13;17.07;;;7.40;;
34491;SDS011;20737;49.908;8.126;2023-02-15T11:36:44;20.40;;;9.00;;
34491;SDS011;20737;49.908;8.126;2023-02-15T11:39:14;19.73;;;8.57;;
34491;SDS011;20737;49.908;8.126;2023-02-15T11:41:44;17.83;;;9.33;;
34491;SDS011;20737;49.908;8.126;2023-02-15T11:46:52;20.60;;;8.20;;
34491;SDS011;20737;49.908;8.126;2023-02-15T11:49:24;18.77;;;7.37;;
34491;SDS011;20737;49.908;8.126;2023-02-15T11:51:53;15.83;;;7.97;;
34491;SDS011;20737;49.908;8.126;2023-02-15T11:54:23;17.60;;;8.30;;
34491;SDS011;20737;49.908;8.126;2023-02-15T11:56:54;15.60;;;8.13;;
34491;SDS011;20737;49.908;8.126;2023-02-15T11:59:24;19.33;;;7.87;;
34491;SDS011;20737;49.908;8.126;2023-02-15T12:01:55;17.98;;;8.32;;
34491;SDS011;20737;49.908;8.126;2023-02-15T12:04:28;21.73;;;8.90;;
34491;SDS011;20737;49.908;8.126;2023-02-15T12:07:02;22.30;;;9.47;;
34491;SDS011;20737;49.908;8.126;2023-02-15T12:09:37;16.27;;;8.10;;
34491;SDS011;20737;49.908;8.126;2023-02-15T12:12:24;24.13;;;9.33;;
34491;SDS011;20737;49.908;8.126;2023-02-15T12:14:53;19.00;;;8.03;;
34491;SDS011;20737;49.908;8.126;2023-02-15T12:17:21;18.13;;;8.60;;
34491;SDS011;20737;49.908;8.126;2023-02-15T12:19:51;23.83;;;9.97;;
34491;SDS011;20737;49.908;8.126;2023-02-15T12:22:22;21.47;;;9.63;;
34491;SDS011;20737;49.908;8.126;2023-02-15T12:24:51;20.00;;;9.40;;
34491;SDS011;20737;49.908;8.126;2023-02-15T12:27:20;27.93;;;10.80;;
34491;SDS011;20737;49.908;8.126;2023-02-15T12:29:51;21.43;;;9.93;;
34491;SDS011;20737;49.908;8.126;2023-02-15T12:32:22;22.23;;;9.60;;
34491;SDS011;20737;49.908;8.126;2023-02-15T12:34:56;22.10;;;9.97;;
34491;SDS011;20737;49.908;8.126;2023-02-15T12:37:29;24.60;;;9.37;;
34491;SDS011;20737;49.908;8.126;2023-02-15T12:39:59;23.13;;;9.77;;
34491;SDS011;20737;49.908;8.126;2023-02-15T12:42:40;21.30;;;9.27;;
34491;SDS011;20737;49.908;8.126;2023-02-15T12:45:19;21.67;;;9.63;;
34491;SDS011;20737;49.908;8.126;2023-02-15T12:47:49;23.63;;;9.43;;
34491;SDS011;20737;49.908;8.126;2023-02-15T12:50:37;24.27;;;11.20;;
34491;SDS011;20737;49.908;8.126;2023-02-15T12:53:06;24.50;;;9.70;;
34491;SDS011;20737;49.908;8.126;2023-02-15T12:55:34;23.03;;;9.07;;
34491;SDS011;20737;49.908;8.126;2023-02-15T12:58:05;28.13;;;11.97;;
34491;SDS011;20737;49.908;8.126;2023-02-15T13:00:35;23.23;;;10.77;;
34491;SDS011;20737;49.908;8.126;2023-02-15T13:03:03;26.20;;;11.60;;
34491;SDS011;20737;49.908;8.126;2023-02-15T13:05:32;24.10;;;10.90;;
34491;SDS011;20737;49.908;8.126;2023-02-15T13:08:13;24.80;;;10.97;;
34491;SDS011;20737;49.908;8.126;2023-02-15T13:10:52;26.73;;;11.70;;
34491;SDS011;20737;49.908;8.126;2023-02-15T13:13:21;28.20;;;10.70;;
34491;SDS011;20737;49.908;8.126;2023-02-15T13:15:51;25.33;;;10.33;;
34491;SDS011;20737;49.908;8.126;2023-02-15T13:18:28;31.23;;;11.50;;
34491;SDS011;20737;49.908;8.126;2023-02-15T13:20:57;28.17;;;11.43;;
34491;SDS011;20737;49.908;8.126;2023-02-15T13:23:32;24.83;;;10.10;;
34491;SDS011;20737;49.908;8.126;2023-02-15T13:26:02;26.37;;;11.33;;
34491;SDS011;20737;49.908;8.126;2023-02-15T13:28:32;27.37;;;10.57;;
34491;SDS011;20737;49.908;8.126;2023-02-15T13:31:07;25.67;;;11.73;;
34491;SDS011;20737;49.908;8.126;2023-02-15T13:33:39;27.97;;;11.80;;
34491;SDS011;20737;49.908;8.126;2023-02-15T13:36:12;29.33;;;12.23;;
34491;SDS011;20737;49.908;8.126;2023-02-15T13:38:49;26.63;;;11.17;;
34491;SDS011;20737;49.908;8.126;2023-02-15T13:41:25;25.90;;;12.80;;
34491;SDS011;20737;49.908;8.126;2023-02-15T13:44:01;29.73;;;11.53;;
34491;SDS011;20737;49.908;8.126;2023-02-15T13:46:39;28.47;;;11.83;;
34491;SDS011;20737;49.908;8.126;2023-02-15T13:49:18;26.10;;;10.77;;
34491;SDS011;20737;49.908;8.126;2023-02-15T13:51:57;26.73;;;11.73;;
34491;SDS011;20737;49.908;8.126;2023-02-15T13:57:22;27.37;;;11.60;;
34491;SDS011;20737;49.908;8.126;2023-02-15T14:00:01;25.80;;;11.20;;
34491;SDS011;20737;49.908;8.126;2023-02-15T14:02:45;24.63;;;10.40;;
34491;SDS011;20737;49.908;8.126;2023-02-15T14:05:28;28.60;;;11.53;;
34491;SDS011;20737;49.908;8.126;2023-02-15T14:08:04;25.63;;;12.23;;
34491;SDS011;20737;49.908;8.126;2023-02-15T14:10:53;29.87;;;13.27;;
34491;SDS011;20737;49.908;8.126;2023-02-15T14:16:31;31.27;;;12.63;;
34491;SDS011;20737;49.908;8.126;2023-02-15T14:19:09;25.67;;;11.37;;
34491;SDS011;20737;49.908;8.126;2023-02-15T14:21:42;28.67;;;12.03;;
34491;SDS011;20737;49.908;8.126;2023-02-15T14:24:22;26.80;;;12.00;;
34491;SDS011;20737;49.908;8.126;2023-02-15T14:27:06;27.30;;;11.53;;
34491;SDS011;20737;49.908;8.126;2023-02-15T14:29:46;34.57;;;13.53;;
34491;SDS011;20737;49.908;8.126;2023-02-15T14:32:18;32.63;;;12.73;;
34491;SDS011;20737;49.908;8.126;2023-02-15T14:34:53;29.25;;;13.18;;
34491;SDS011;20737;49.908;8.126;2023-02-15T14:37:31;31.30;;;13.48;;
34491;SDS011;20737;49.908;8.126;2023-02-15T14:40:07;29.00;;;13.02;;
34491;SDS011;20737;49.908;8.126;2023-02-15T14:42:58;34.10;;;14.53;;
34491;SDS011;20737;49.908;8.126;2023-02-15T14:45:40;25.87;;;12.03;;
34491;SDS011;20737;49.908;8.126;2023-02-15T14:48:15;31.83;;;13.33;;
34491;SDS011;20737;49.908;8.126;2023-02-15T14:50:46;26.97;;;12.70;;
34491;SDS011;20737;49.908;8.126;2023-02-15T14:53:35;30.45;;;13.32;;
34491;SDS011;20737;49.908;8.126;2023-02-15T14:56:22;32.97;;;13.20;;
34491;SDS011;20737;49.908;8.126;2023-02-15T15:01:42;31.47;;;13.33;;
34491;SDS011;20737;49.908;8.126;2023-02-15T15:04:21;38.77;;;13.60;;
34491;SDS011;20737;49.908;8.126;2023-02-15T15:06:57;35.50;;;14.13;;
34491;SDS011;20737;49.908;8.126;2023-02-15T15:09:31;26.93;;;11.90;;
34491;SDS011;20737;49.908;8.126;2023-02-15T15:12:13;28.17;;;11.93;;
34491;SDS011;20737;49.908;8.126;2023-02-15T15:15:02;34.23;;;14.63;;
34491;SDS011;20737;49.908;8.126;2023-02-15T15:26:25;30.80;;;12.87;;
34491;SDS011;20737;49.908;8.126;2023-02-15T15:28:59;33.53;;;14.60;;
34491;SDS011;20737;49.908;8.126;2023-02-15T15:31:37;39.70;;;13.43;;
34491;SDS011;20737;49.908;8.126;2023-02-15T15:34:19;31.33;;;12.88;;